sensor_id;sensor_type;location;lat;lon;timestamp;temperature;humidity
22544;DHT22;11438;52.044;8.716;2023-04-09T00:00:35;9.30;92.50
22544;DHT22;11438;52.044;8.716;2023-04-09T00:03:01;9.20;92.10
22544;DHT22;11438;52.044;8.716;2023-04-09T00:05:27;9.30;92.20
22544;DHT22;11438;52.044;8.716;2023-04-09T00:07:52;9.20;92.20
22544;DHT22;11438;52.044;8.716;2023-04-09T00:10:18;9.20;92.20
22544;DHT22;11438;52.044;8.716;2023-04-09T00:12:43;9.20;92.30
22544;DHT22;11438;52.044;8.716;2023-04-09T00:15:09;9.10;92.30
22544;DHT22;11438;52.044;8.716;2023-04-09T00:17:35;9.10;92.20
22544;DHT22;11438;52.044;8.716;2023-04-09T00:20:00;9.10;92.20
22544;DHT22;11438;52.044;8.716;2023-04-09T00:22:26;9.00;92.20
22544;DHT22;11438;52.044;8.716;2023-04-09T00:24:51;9.00;92.20
22544;DHT22;11438;52.044;8.716;2023-04-09T00:27:17;9.00;92.20
22544;DHT22;11438;52.044;8.716;2023-04-09T00:29:42;9.00;92.20
22544;DHT22;11438;52.044;8.716;2023-04-09T00:32:08;9.00;92.20
22544;DHT22;11438;52.044;8.716;2023-04-09T00:34:34;8.90;92.20
22544;DHT22;11438;52.044;8.716;2023-04-09T00:36:59;8.90;92.20
22544;DHT22;11438;52.044;8.716;2023-04-09T00:39:25;8.90;92.30
22544;DHT22;11438;52.044;8.716;2023-04-09T00:41:55;8.90;92.30
22544;DHT22;11438;52.044;8.716;2023-04-09T00:44:22;8.90;92.30
22544;DHT22;11438;52.044;8.716;2023-04-09T00:46:47;8.80;92.30
22544;DHT22;11438;52.044;8.716;2023-04-09T00:49:13;8.80;92.30
22544;DHT22;11438;52.044;8.716;2023-04-09T00:51:39;8.80;92.30
22544;DHT22;11438;52.044;8.716;2023-04-09T00:54:05;8.80;92.30
22544;DHT22;11438;52.044;8.716;2023-04-09T00:56:32;8.70;92.20
22544;DHT22;11438;52.044;8.716;2023-04-09T00:58:58;8.70;92.20
22544;DHT22;11438;52.044;8.716;2023-04-09T01:01:25;8.70;92.20
22544;DHT22;11438;52.044;8.716;2023-04-09T01:03:50;8.70;92.20
22544;DHT22;11438;52.044;8.716;2023-04-09T01:06:41;8.60;92.20
22544;DHT22;11438;52.044;8.716;2023-04-09T01:09:30;8.60;92.20
22544;DHT22;11438;52.044;8.716;2023-04-09T01:14:58;8.50;92.10
22544;DHT22;11438;52.044;8.716;2023-04-09T01:17:43;8.50;92.10
22544;DHT22;11438;52.044;8.716;2023-04-09T01:20:19;8.50;92.10
22544;DHT22;11438;52.044;8.716;2023-04-09T01:28:31;8.40;92.10
22544;DHT22;11438;52.044;8.716;2023-04-09T01:31:05;8.40;92.20
22544;DHT22;11438;52.044;8.716;2023-04-09T01:33:32;8.30;92.20
22544;DHT22;11438;52.044;8.716;2023-04-09T01:35:59;8.30;92.20
22544;DHT22;11438;52.044;8.716;2023-04-09T01:38:25;8.30;92.20
22544;DHT22;11438;52.044;8.716;2023-04-09T01:40:53;8.30;92.20
22544;DHT22;11438;52.044;8.716;2023-04-09T01:43:20;8.20;92.20
22544;DHT22;11438;52.044;8.716;2023-04-09T01:45:46;8.20;92.20
22544;DHT22;11438;52.044;8.716;2023-04-09T01:48:13;8.20;92.20
22544;DHT22;11438;52.044;8.716;2023-04-09T01:50:39;8.10;92.20
22544;DHT22;11438;52.044;8.716;2023-04-09T01:53:05;8.10;92.30
22544;DHT22;11438;52.044;8.716;2023-04-09T01:55:31;8.10;92.30
22544;DHT22;11438;52.044;8.716;2023-04-09T01:57:56;8.10;92.20
22544;DHT22;11438;52.044;8.716;2023-04-09T02:00:23;8.00;92.20
22544;DHT22;11438;52.044;8.716;2023-04-09T02:02:57;8.00;92.20
22544;DHT22;11438;52.044;8.716;2023-04-09T02:05:24;8.00;92.30
22544;DHT22;11438;52.044;8.716;2023-04-09T02:07:55;7.90;92.30
22544;DHT22;11438;52.044;8.716;2023-04-09T02:10:26;7.90;92.30
22544;DHT22;11438;52.044;8.716;2023-04-09T02:12:54;7.90;92.40
22544;DHT22;11438;52.044;8.716;2023-04-09T02:15:20;7.90;92.40
22544;DHT22;11438;52.044;8.716;2023-04-09T02:17:46;7.90;92.40
22544;DHT22;11438;52.044;8.716;2023-04-09T02:20:16;7.90;92.50
22544;DHT22;11438;52.044;8.716;2023-04-09T02:22:41;7.80;92.60
22544;DHT22;11438;52.044;8.716;2023-04-09T02:25:07;7.80;92.50
22544;DHT22;11438;52.044;8.716;2023-04-09T02:27:33;7.70;92.50
22544;DHT22;11438;52.044;8.716;2023-04-09T02:29:58;7.80;92.50
22544;DHT22;11438;52.044;8.716;2023-04-09T02:32:23;7.70;92.50
22544;DHT22;11438;52.044;8.716;2023-04-09T02:34:49;7.70;92.40
22544;DHT22;11438;52.044;8.716;2023-04-09T02:37:15;7.70;92.40
22544;DHT22;11438;52.044;8.716;2023-04-09T02:39:40;7.70;92.40
22544;DHT22;11438;52.044;8.716;2023-04-09T02:42:05;7.70;92.40
22544;DHT22;11438;52.044;8.716;2023-04-09T02:44:32;7.70;92.80
22544;DHT22;11438;52.044;8.716;2023-04-09T02:46:57;7.60;92.40
22544;DHT22;11438;52.044;8.716;2023-04-09T02:49:23;7.60;92.40
22544;DHT22;11438;52.044;8.716;2023-04-09T02:51:48;7.60;92.40
22544;DHT22;11438;52.044;8.716;2023-04-09T02:54:14;7.60;92.50
22544;DHT22;11438;52.044;8.716;2023-04-09T02:56:39;7.60;92.50
22544;DHT22;11438;52.044;8.716;2023-04-09T02:59:05;7.60;92.50
22544;DHT22;11438;52.044;8.716;2023-04-09T03:01:30;7.50;92.50
22544;DHT22;11438;52.044;8.716;2023-04-09T03:03:56;7.50;92.50
22544;DHT22;11438;52.044;8.716;2023-04-09T03:06:21;7.50;92.50
22544;DHT22;11438;52.044;8.716;2023-04-09T03:08:47;7.50;92.50
22544;DHT22;11438;52.044;8.716;2023-04-09T03:11:12;7.50;92.40
22544;DHT22;11438;52.044;8.716;2023-04-09T03:13:38;7.50;92.40
22544;DHT22;11438;52.044;8.716;2023-04-09T03:16:03;7.40;92.40
22544;DHT22;11438;52.044;8.716;2023-04-09T03:18:29;7.40;92.50
22544;DHT22;11438;52.044;8.716;2023-04-09T03:20:55;7.40;92.50
22544;DHT22;11438;52.044;8.716;2023-04-09T03:23:21;7.40;92.40
22544;DHT22;11438;52.044;8.716;2023-04-09T03:25:46;7.30;92.30
22544;DHT22;11438;52.044;8.716;2023-04-09T03:28:11;7.30;92.30
22544;DHT22;11438;52.044;8.716;2023-04-09T03:30:37;7.30;92.30
22544;DHT22;11438;52.044;8.716;2023-04-09T03:33:02;7.30;92.40
22544;DHT22;11438;52.044;8.716;2023-04-09T03:35:28;7.20;92.40
22544;DHT22;11438;52.044;8.716;2023-04-09T03:37:53;7.20;92.30
22544;DHT22;11438;52.044;8.716;2023-04-09T03:40:19;7.20;92.40
22544;DHT22;11438;52.044;8.716;2023-04-09T03:42:44;7.20;92.50
22544;DHT22;11438;52.044;8.716;2023-04-09T03:45:10;7.20;92.60
22544;DHT22;11438;52.044;8.716;2023-04-09T03:47:35;7.20;92.60
22544;DHT22;11438;52.044;8.716;2023-04-09T03:50:01;7.20;92.80
22544;DHT22;11438;52.044;8.716;2023-04-09T03:52:27;7.20;92.90
22544;DHT22;11438;52.044;8.716;2023-04-09T03:54:52;7.20;93.10
22544;DHT22;11438;52.044;8.716;2023-04-09T03:57:18;7.20;93.20
22544;DHT22;11438;52.044;8.716;2023-04-09T03:59:43;7.30;93.40
22544;DHT22;11438;52.044;8.716;2023-04-09T04:02:09;7.30;93.50
22544;DHT22;11438;52.044;8.716;2023-04-09T04:04:35;7.30;93.60
22544;DHT22;11438;52.044;8.716;2023-04-09T04:07:02;7.40;93.80
22544;DHT22;11438;52.044;8.716;2023-04-09T04:09:28;7.40;93.90
22544;DHT22;11438;52.044;8.716;2023-04-09T04:11:53;7.50;94.00
22544;DHT22;11438;52.044;8.716;2023-04-09T04:14:20;7.50;94.20
22544;DHT22;11438;52.044;8.716;2023-04-09T04:16:45;7.60;94.40
22544;DHT22;11438;52.044;8.716;2023-04-09T04:19:11;7.60;94.50
22544;DHT22;11438;52.044;8.716;2023-04-09T04:21:36;7.60;94.50
22544;DHT22;11438;52.044;8.716;2023-04-09T04:24:02;7.70;94.60
22544;DHT22;11438;52.044;8.716;2023-04-09T04:26:27;7.70;94.80
22544;DHT22;11438;52.044;8.716;2023-04-09T04:28:53;7.70;95.00
22544;DHT22;11438;52.044;8.716;2023-04-09T04:31:18;7.80;95.10
22544;DHT22;11438;52.044;8.716;2023-04-09T04:33:44;7.80;95.30
22544;DHT22;11438;52.044;8.716;2023-04-09T04:36:11;7.90;95.40
22544;DHT22;11438;52.044;8.716;2023-04-09T04:38:37;7.90;95.50
22544;DHT22;11438;52.044;8.716;2023-04-09T04:41:03;8.00;95.60
22544;DHT22;11438;52.044;8.716;2023-04-09T04:43:29;8.00;95.80
22544;DHT22;11438;52.044;8.716;2023-04-09T04:45:55;8.00;95.90
22544;DHT22;11438;52.044;8.716;2023-04-09T04:48:21;8.00;95.90
22544;DHT22;11438;52.044;8.716;2023-04-09T04:50:53;8.10;96.00
22544;DHT22;11438;52.044;8.716;2023-04-09T04:53:18;8.10;96.10
22544;DHT22;11438;52.044;8.716;2023-04-09T04:55:44;8.10;96.10
22544;DHT22;11438;52.044;8.716;2023-04-09T04:58:09;8.10;96.10
22544;DHT22;11438;52.044;8.716;2023-04-09T05:00:35;8.10;96.20
22544;DHT22;11438;52.044;8.716;2023-04-09T05:03:00;8.10;96.30
22544;DHT22;11438;52.044;8.716;2023-04-09T05:05:26;8.10;96.30
22544;DHT22;11438;52.044;8.716;2023-04-09T05:07:51;8.10;96.30
22544;DHT22;11438;52.044;8.716;2023-04-09T05:10:17;8.10;96.30
22544;DHT22;11438;52.044;8.716;2023-04-09T05:12:42;8.20;96.40
22544;DHT22;11438;52.044;8.716;2023-04-09T05:15:08;8.10;96.40
22544;DHT22;11438;52.044;8.716;2023-04-09T05:17:33;8.20;96.40
22544;DHT22;11438;52.044;8.716;2023-04-09T05:19:59;8.10;96.40
22544;DHT22;11438;52.044;8.716;2023-04-09T05:22:24;8.20;96.40
22544;DHT22;11438;52.044;8.716;2023-04-09T05:24:50;8.20;96.50
22544;DHT22;11438;52.044;8.716;2023-04-09T05:27:16;8.20;96.40
22544;DHT22;11438;52.044;8.716;2023-04-09T05:29:43;8.20;96.50
22544;DHT22;11438;52.044;8.716;2023-04-09T05:32:09;8.20;96.40
22544;DHT22;11438;52.044;8.716;2023-04-09T05:34:34;8.20;96.30
22544;DHT22;11438;52.044;8.716;2023-04-09T05:37:00;8.20;96.20
22544;DHT22;11438;52.044;8.716;2023-04-09T05:39:26;8.20;96.20
22544;DHT22;11438;52.044;8.716;2023-04-09T05:41:51;8.20;96.20
22544;DHT22;11438;52.044;8.716;2023-04-09T05:44:17;8.20;96.20
22544;DHT22;11438;52.044;8.716;2023-04-09T05:46:42;8.30;96.20
22544;DHT22;11438;52.044;8.716;2023-04-09T05:49:08;8.30;96.20
22544;DHT22;11438;52.044;8.716;2023-04-09T05:51:33;8.30;96.20
22544;DHT22;11438;52.044;8.716;2023-04-09T05:54:00;8.30;96.20
22544;DHT22;11438;52.044;8.716;2023-04-09T05:56:25;8.30;96.20
22544;DHT22;11438;52.044;8.716;2023-04-09T05:58:52;8.30;96.20
22544;DHT22;11438;52.044;8.716;2023-04-09T06:01:18;8.30;96.10
22544;DHT22;11438;52.044;8.716;2023-04-09T06:03:43;8.40;96.20
22544;DHT22;11438;52.044;8.716;2023-04-09T06:06:09;8.40;96.20
22544;DHT22;11438;52.044;8.716;2023-04-09T06:08:35;8.40;96.20
22544;DHT22;11438;52.044;8.716;2023-04-09T06:11:00;8.40;96.20
22544;DHT22;11438;52.044;8.716;2023-04-09T06:13:26;8.50;96.20
22544;DHT22;11438;52.044;8.716;2023-04-09T06:15:51;8.50;96.20
22544;DHT22;11438;52.044;8.716;2023-04-09T06:18:17;8.50;96.20
22544;DHT22;11438;52.044;8.716;2023-04-09T06:20:42;8.50;96.20
22544;DHT22;11438;52.044;8.716;2023-04-09T06:23:08;8.50;96.20
22544;DHT22;11438;52.044;8.716;2023-04-09T06:25:34;8.50;96.20
22544;DHT22;11438;52.044;8.716;2023-04-09T06:28:00;8.60;96.30
22544;DHT22;11438;52.044;8.716;2023-04-09T06:30:27;8.60;96.30
22544;DHT22;11438;52.044;8.716;2023-04-09T06:32:52;8.60;96.30
22544;DHT22;11438;52.044;8.716;2023-04-09T06:35:18;8.70;96.30
22544;DHT22;11438;52.044;8.716;2023-04-09T06:37:43;8.70;96.30
22544;DHT22;11438;52.044;8.716;2023-04-09T06:40:09;8.70;96.30
22544;DHT22;11438;52.044;8.716;2023-04-09T06:42:35;8.70;96.30
22544;DHT22;11438;52.044;8.716;2023-04-09T06:45:00;8.70;96.30
22544;DHT22;11438;52.044;8.716;2023-04-09T06:47:26;8.80;96.40
22544;DHT22;11438;52.044;8.716;2023-04-09T06:49:51;8.80;96.40
22544;DHT22;11438;52.044;8.716;2023-04-09T06:52:17;8.90;96.40
22544;DHT22;11438;52.044;8.716;2023-04-09T06:54:42;8.90;96.50
22544;DHT22;11438;52.044;8.716;2023-04-09T06:57:08;9.00;96.50
22544;DHT22;11438;52.044;8.716;2023-04-09T06:59:33;9.00;96.40
22544;DHT22;11438;52.044;8.716;2023-04-09T07:01:59;9.00;96.40
22544;DHT22;11438;52.044;8.716;2023-04-09T07:04:25;9.10;96.40
22544;DHT22;11438;52.044;8.716;2023-04-09T07:06:51;9.10;96.40
22544;DHT22;11438;52.044;8.716;2023-04-09T07:09:19;9.20;96.50
22544;DHT22;11438;52.044;8.716;2023-04-09T07:11:45;9.20;96.40
22544;DHT22;11438;52.044;8.716;2023-04-09T07:14:10;9.30;96.50
22544;DHT22;11438;52.044;8.716;2023-04-09T07:16:36;9.30;96.50
22544;DHT22;11438;52.044;8.716;2023-04-09T07:19:01;9.40;96.40
22544;DHT22;11438;52.044;8.716;2023-04-09T07:21:27;9.40;96.40
22544;DHT22;11438;52.044;8.716;2023-04-09T07:23:53;9.50;96.50
22544;DHT22;11438;52.044;8.716;2023-04-09T07:26:19;9.50;96.40
22544;DHT22;11438;52.044;8.716;2023-04-09T07:28:44;9.60;96.40
22544;DHT22;11438;52.044;8.716;2023-04-09T07:31:10;9.60;96.40
22544;DHT22;11438;52.044;8.716;2023-04-09T07:33:35;9.70;96.50
22544;DHT22;11438;52.044;8.716;2023-04-09T07:36:01;9.70;96.50
22544;DHT22;11438;52.044;8.716;2023-04-09T07:38:28;9.80;96.50
22544;DHT22;11438;52.044;8.716;2023-04-09T07:40:53;9.80;96.60
22544;DHT22;11438;52.044;8.716;2023-04-09T07:43:19;9.90;96.70
22544;DHT22;11438;52.044;8.716;2023-04-09T07:45:47;9.90;96.70
22544;DHT22;11438;52.044;8.716;2023-04-09T07:48:13;10.00;96.80
22544;DHT22;11438;52.044;8.716;2023-04-09T07:50:39;10.10;96.80
22544;DHT22;11438;52.044;8.716;2023-04-09T07:53:04;10.10;96.60
22544;DHT22;11438;52.044;8.716;2023-04-09T07:55:30;10.20;96.50
22544;DHT22;11438;52.044;8.716;2023-04-09T07:57:55;10.20;96.50
22544;DHT22;11438;52.044;8.716;2023-04-09T08:00:21;10.20;96.60
22544;DHT22;11438;52.044;8.716;2023-04-09T08:02:46;10.20;96.70
22544;DHT22;11438;52.044;8.716;2023-04-09T08:05:12;10.30;96.60
22544;DHT22;11438;52.044;8.716;2023-04-09T08:07:37;10.30;96.50
22544;DHT22;11438;52.044;8.716;2023-04-09T08:10:04;10.30;96.70
22544;DHT22;11438;52.044;8.716;2023-04-09T08:12:30;10.30;97.00
22544;DHT22;11438;52.044;8.716;2023-04-09T08:14:56;10.30;96.80
22544;DHT22;11438;52.044;8.716;2023-04-09T08:17:21;10.40;96.90
22544;DHT22;11438;52.044;8.716;2023-04-09T08:19:47;10.40;96.90
22544;DHT22;11438;52.044;8.716;2023-04-09T08:22:14;10.40;96.90
22544;DHT22;11438;52.044;8.716;2023-04-09T08:24:40;10.40;96.90
22544;DHT22;11438;52.044;8.716;2023-04-09T08:27:08;10.50;97.00
22544;DHT22;11438;52.044;8.716;2023-04-09T08:29:33;10.50;97.00
22544;DHT22;11438;52.044;8.716;2023-04-09T08:31:59;10.60;97.30
22544;DHT22;11438;52.044;8.716;2023-04-09T08:34:24;10.60;97.30
22544;DHT22;11438;52.044;8.716;2023-04-09T08:36:50;10.70;97.40
22544;DHT22;11438;52.044;8.716;2023-04-09T08:39:16;10.70;97.60
22544;DHT22;11438;52.044;8.716;2023-04-09T08:41:45;10.80;97.80
22544;DHT22;11438;52.044;8.716;2023-04-09T08:44:11;10.80;97.90
22544;DHT22;11438;52.044;8.716;2023-04-09T08:46:37;10.90;97.80
22544;DHT22;11438;52.044;8.716;2023-04-09T08:49:03;11.00;97.70
22544;DHT22;11438;52.044;8.716;2023-04-09T08:51:28;11.00;97.70
22544;DHT22;11438;52.044;8.716;2023-04-09T08:53:58;11.10;97.70
22544;DHT22;11438;52.044;8.716;2023-04-09T08:56:25;11.20;97.70
22544;DHT22;11438;52.044;8.716;2023-04-09T08:58:51;11.30;97.70
22544;DHT22;11438;52.044;8.716;2023-04-09T09:01:30;11.40;97.80
22544;DHT22;11438;52.044;8.716;2023-04-09T09:04:00;11.40;97.80
22544;DHT22;11438;52.044;8.716;2023-04-09T09:06:28;11.50;97.80
22544;DHT22;11438;52.044;8.716;2023-04-09T09:09:12;11.60;97.80
22544;DHT22;11438;52.044;8.716;2023-04-09T09:14:07;11.80;97.60
22544;DHT22;11438;52.044;8.716;2023-04-09T09:16:34;11.90;97.50
22544;DHT22;11438;52.044;8.716;2023-04-09T09:19:04;12.00;97.50
22544;DHT22;11438;52.044;8.716;2023-04-09T09:21:30;12.10;97.40
22544;DHT22;11438;52.044;8.716;2023-04-09T09:23:56;12.10;97.30
22544;DHT22;11438;52.044;8.716;2023-04-09T09:26:24;12.20;97.40
22544;DHT22;11438;52.044;8.716;2023-04-09T09:28:50;12.30;97.30
22544;DHT22;11438;52.044;8.716;2023-04-09T09:31:18;12.40;96.90
22544;DHT22;11438;52.044;8.716;2023-04-09T09:33:44;12.50;96.50
22544;DHT22;11438;52.044;8.716;2023-04-09T09:36:11;12.60;96.50
22544;DHT22;11438;52.044;8.716;2023-04-09T09:38:53;12.70;96.40
22544;DHT22;11438;52.044;8.716;2023-04-09T09:41:19;12.80;96.10
22544;DHT22;11438;52.044;8.716;2023-04-09T09:43:44;12.90;95.80
22544;DHT22;11438;52.044;8.716;2023-04-09T09:46:11;12.90;95.70
22544;DHT22;11438;52.044;8.716;2023-04-09T09:48:37;13.00;95.60
22544;DHT22;11438;52.044;8.716;2023-04-09T09:51:08;13.10;95.50
22544;DHT22;11438;52.044;8.716;2023-04-09T09:53:35;13.20;95.20
22544;DHT22;11438;52.044;8.716;2023-04-09T09:56:06;13.20;94.90
22544;DHT22;11438;52.044;8.716;2023-04-09T09:58:39;13.30;94.90
22544;DHT22;11438;52.044;8.716;2023-04-09T10:01:11;13.40;94.70
22544;DHT22;11438;52.044;8.716;2023-04-09T10:03:38;13.50;94.70
22544;DHT22;11438;52.044;8.716;2023-04-09T10:06:05;13.50;94.40
22544;DHT22;11438;52.044;8.716;2023-04-09T10:08:32;13.60;93.90
22544;DHT22;11438;52.044;8.716;2023-04-09T10:11:00;13.70;94.10
22544;DHT22;11438;52.044;8.716;2023-04-09T10:13:29;13.70;94.30
22544;DHT22;11438;52.044;8.716;2023-04-09T10:15:58;13.80;94.20
22544;DHT22;11438;52.044;8.716;2023-04-09T10:18:24;13.90;93.70
22544;DHT22;11438;52.044;8.716;2023-04-09T10:23:43;14.00;93.60
22544;DHT22;11438;52.044;8.716;2023-04-09T10:26:09;14.10;93.40
22544;DHT22;11438;52.044;8.716;2023-04-09T10:28:38;14.10;92.70
22544;DHT22;11438;52.044;8.716;2023-04-09T10:31:05;14.20;92.30
22544;DHT22;11438;52.044;8.716;2023-04-09T10:33:31;14.20;92.50
22544;DHT22;11438;52.044;8.716;2023-04-09T10:36:10;14.30;92.30
22544;DHT22;11438;52.044;8.716;2023-04-09T10:38:43;14.40;91.90
22544;DHT22;11438;52.044;8.716;2023-04-09T10:41:27;14.40;91.70
22544;DHT22;11438;52.044;8.716;2023-04-09T10:43:53;14.50;91.30
22544;DHT22;11438;52.044;8.716;2023-04-09T10:46:29;14.60;91.40
22544;DHT22;11438;52.044;8.716;2023-04-09T10:49:17;14.60;90.90
22544;DHT22;11438;52.044;8.716;2023-04-09T10:59:37;15.00;90.50
22544;DHT22;11438;52.044;8.716;2023-04-09T11:02:07;15.10;89.60
22544;DHT22;11438;52.044;8.716;2023-04-09T11:04:46;15.20;89.30
22544;DHT22;11438;52.044;8.716;2023-04-09T11:07:17;15.30;89.60
22544;DHT22;11438;52.044;8.716;2023-04-09T11:09:44;15.50;90.40
22544;DHT22;11438;52.044;8.716;2023-04-09T11:12:10;15.70;90.20
22544;DHT22;11438;52.044;8.716;2023-04-09T11:14:36;15.80;89.80
22544;DHT22;11438;52.044;8.716;2023-04-09T11:17:02;16.00;90.20
22544;DHT22;11438;52.044;8.716;2023-04-09T11:19:28;16.20;88.20
22544;DHT22;11438;52.044;8.716;2023-04-09T11:21:53;16.30;86.40
22544;DHT22;11438;52.044;8.716;2023-04-09T11:24:20;16.50;86.80
22544;DHT22;11438;52.044;8.716;2023-04-09T11:26:47;16.60;85.80
22544;DHT22;11438;52.044;8.716;2023-04-09T11:29:13;16.70;84.70
22544;DHT22;11438;52.044;8.716;2023-04-09T11:31:43;16.70;83.90
22544;DHT22;11438;52.044;8.716;2023-04-09T11:34:09;16.80;83.50
22544;DHT22;11438;52.044;8.716;2023-04-09T11:36:39;16.80;83.30
22544;DHT22;11438;52.044;8.716;2023-04-09T11:39:05;16.90;81.50
22544;DHT22;11438;52.044;8.716;2023-04-09T11:41:35;16.80;81.50
22544;DHT22;11438;52.044;8.716;2023-04-09T11:44:04;16.90;81.40
22544;DHT22;11438;52.044;8.716;2023-04-09T11:46:31;16.80;81.30
22544;DHT22;11438;52.044;8.716;2023-04-09T11:48:58;16.80;82.30
22544;DHT22;11438;52.044;8.716;2023-04-09T11:51:24;16.80;82.50
22544;DHT22;11438;52.044;8.716;2023-04-09T11:53:51;16.80;82.10
22544;DHT22;11438;52.044;8.716;2023-04-09T11:56:17;16.80;82.10
22544;DHT22;11438;52.044;8.716;2023-04-09T11:58:46;16.80;83.10
22544;DHT22;11438;52.044;8.716;2023-04-09T12:01:13;16.80;82.80
22544;DHT22;11438;52.044;8.716;2023-04-09T12:03:38;16.80;82.50
22544;DHT22;11438;52.044;8.716;2023-04-09T12:06:07;16.90;81.30
22544;DHT22;11438;52.044;8.716;2023-04-09T12:08:34;16.90;80.90
22544;DHT22;11438;52.044;8.716;2023-04-09T12:11:08;16.90;80.20
22544;DHT22;11438;52.044;8.716;2023-04-09T12:13:34;16.90;79.60
22544;DHT22;11438;52.044;8.716;2023-04-09T12:16:00;17.00;81.10
22544;DHT22;11438;52.044;8.716;2023-04-09T12:18:26;17.00;80.10
22544;DHT22;11438;52.044;8.716;2023-04-09T12:20:52;17.10;80.60
22544;DHT22;11438;52.044;8.716;2023-04-09T12:23:17;17.10;80.80
22544;DHT22;11438;52.044;8.716;2023-04-09T12:25:43;17.10;80.80
22544;DHT22;11438;52.044;8.716;2023-04-09T12:28:14;17.20;80.50
22544;DHT22;11438;52.044;8.716;2023-04-09T12:30:41;17.30;80.60
22544;DHT22;11438;52.044;8.716;2023-04-09T12:33:06;17.30;81.10
22544;DHT22;11438;52.044;8.716;2023-04-09T12:35:32;17.40;80.90
22544;DHT22;11438;52.044;8.716;2023-04-09T12:37:59;17.50;80.80
22544;DHT22;11438;52.044;8.716;2023-04-09T12:40:25;17.50;80.00
22544;DHT22;11438;52.044;8.716;2023-04-09T12:42:50;17.60;79.90
22544;DHT22;11438;52.044;8.716;2023-04-09T12:45:17;17.60;80.20
22544;DHT22;11438;52.044;8.716;2023-04-09T12:47:44;17.70;79.00
22544;DHT22;11438;52.044;8.716;2023-04-09T12:50:10;17.70;78.40
22544;DHT22;11438;52.044;8.716;2023-04-09T12:52:36;17.70;78.30
22544;DHT22;11438;52.044;8.716;2023-04-09T12:55:03;17.70;78.20
22544;DHT22;11438;52.044;8.716;2023-04-09T12:57:29;17.80;77.40
22544;DHT22;11438;52.044;8.716;2023-04-09T12:59:55;17.80;77.20
22544;DHT22;11438;52.044;8.716;2023-04-09T13:02:20;17.80;76.90
22544;DHT22;11438;52.044;8.716;2023-04-09T13:04:47;17.90;75.80
22544;DHT22;11438;52.044;8.716;2023-04-09T13:07:14;17.80;75.70
22544;DHT22;11438;52.044;8.716;2023-04-09T13:09:41;17.80;75.20
22544;DHT22;11438;52.044;8.716;2023-04-09T13:12:06;17.90;76.20
22544;DHT22;11438;52.044;8.716;2023-04-09T13:14:32;17.90;75.30
22544;DHT22;11438;52.044;8.716;2023-04-09T13:16:57;17.90;75.20
22544;DHT22;11438;52.044;8.716;2023-04-09T13:19:23;17.90;75.60
22544;DHT22;11438;52.044;8.716;2023-04-09T13:21:49;17.90;74.60
22544;DHT22;11438;52.044;8.716;2023-04-09T13:24:14;17.90;74.30
22544;DHT22;11438;52.044;8.716;2023-04-09T13:26:40;17.90;75.10
22544;DHT22;11438;52.044;8.716;2023-04-09T13:29:06;17.90;75.70
22544;DHT22;11438;52.044;8.716;2023-04-09T13:31:34;17.80;75.30
22544;DHT22;11438;52.044;8.716;2023-04-09T13:34:00;17.90;74.90
22544;DHT22;11438;52.044;8.716;2023-04-09T13:36:27;17.80;74.70
22544;DHT22;11438;52.044;8.716;2023-04-09T13:38:53;17.90;75.10
22544;DHT22;11438;52.044;8.716;2023-04-09T13:41:18;17.90;76.60
22544;DHT22;11438;52.044;8.716;2023-04-09T13:43:44;17.90;74.30
22544;DHT22;11438;52.044;8.716;2023-04-09T13:46:09;17.90;74.70
22544;DHT22;11438;52.044;8.716;2023-04-09T13:48:35;17.80;74.50
22544;DHT22;11438;52.044;8.716;2023-04-09T13:51:00;17.80;74.50
22544;DHT22;11438;52.044;8.716;2023-04-09T13:53:26;17.90;75.40
22544;DHT22;11438;52.044;8.716;2023-04-09T13:55:51;17.90;75.10
22544;DHT22;11438;52.044;8.716;2023-04-09T13:58:17;17.90;74.50
22544;DHT22;11438;52.044;8.716;2023-04-09T14:00:42;17.90;74.90
22544;DHT22;11438;52.044;8.716;2023-04-09T14:03:08;18.00;74.80
22544;DHT22;11438;52.044;8.716;2023-04-09T14:05:33;18.00;73.80
22544;DHT22;11438;52.044;8.716;2023-04-09T14:07:59;18.00;73.10
22544;DHT22;11438;52.044;8.716;2023-04-09T14:10:25;18.00;73.60
22544;DHT22;11438;52.044;8.716;2023-04-09T14:12:52;18.00;73.90
22544;DHT22;11438;52.044;8.716;2023-04-09T14:15:17;18.00;73.60
22544;DHT22;11438;52.044;8.716;2023-04-09T14:17:43;18.00;73.30
22544;DHT22;11438;52.044;8.716;2023-04-09T14:20:08;18.00;74.70
22544;DHT22;11438;52.044;8.716;2023-04-09T14:22:34;18.00;74.10
22544;DHT22;11438;52.044;8.716;2023-04-09T14:24:59;18.00;72.40
22544;DHT22;11438;52.044;8.716;2023-04-09T14:27:25;18.00;72.90
22544;DHT22;11438;52.044;8.716;2023-04-09T14:29:51;18.00;73.20
22544;DHT22;11438;52.044;8.716;2023-04-09T14:32:17;18.00;73.40
22544;DHT22;11438;52.044;8.716;2023-04-09T14:34:43;18.10;73.40
22544;DHT22;11438;52.044;8.716;2023-04-09T14:37:08;18.10;73.00
22544;DHT22;11438;52.044;8.716;2023-04-09T14:39:34;18.10;73.00
22544;DHT22;11438;52.044;8.716;2023-04-09T14:41:59;18.10;72.40
22544;DHT22;11438;52.044;8.716;2023-04-09T14:44:25;18.20;73.10
22544;DHT22;11438;52.044;8.716;2023-04-09T14:46:51;18.20;72.00
22544;DHT22;11438;52.044;8.716;2023-04-09T14:49:19;18.20;72.70
22544;DHT22;11438;52.044;8.716;2023-04-09T14:51:44;18.20;72.70
22544;DHT22;11438;52.044;8.716;2023-04-09T14:54:10;18.20;72.10
22544;DHT22;11438;52.044;8.716;2023-04-09T14:56:36;18.30;71.30
22544;DHT22;11438;52.044;8.716;2023-04-09T14:59:01;18.20;71.30
22544;DHT22;11438;52.044;8.716;2023-04-09T15:01:27;18.30;71.20
22544;DHT22;11438;52.044;8.716;2023-04-09T15:03:53;18.30;71.40
22544;DHT22;11438;52.044;8.716;2023-04-09T15:06:19;18.30;71.00
22544;DHT22;11438;52.044;8.716;2023-04-09T15:08:44;18.20;71.90
22544;DHT22;11438;52.044;8.716;2023-04-09T15:11:19;18.30;71.90
22544;DHT22;11438;52.044;8.716;2023-04-09T15:13:46;18.20;71.80
22544;DHT22;11438;52.044;8.716;2023-04-09T15:16:26;18.20;71.10
22544;DHT22;11438;52.044;8.716;2023-04-09T15:18:53;18.20;70.50
22544;DHT22;11438;52.044;8.716;2023-04-09T15:21:20;18.20;70.30
22544;DHT22;11438;52.044;8.716;2023-04-09T15:23:45;18.20;69.70
22544;DHT22;11438;52.044;8.716;2023-04-09T15:26:11;18.10;69.90
22544;DHT22;11438;52.044;8.716;2023-04-09T15:28:36;18.10;68.90
22544;DHT22;11438;52.044;8.716;2023-04-09T15:31:02;18.10;69.50
22544;DHT22;11438;52.044;8.716;2023-04-09T15:33:28;18.00;69.60
22544;DHT22;11438;52.044;8.716;2023-04-09T15:35:55;18.00;69.50
22544;DHT22;11438;52.044;8.716;2023-04-09T15:38:20;18.00;70.60
22544;DHT22;11438;52.044;8.716;2023-04-09T15:40:49;17.90;70.60
22544;DHT22;11438;52.044;8.716;2023-04-09T15:43:15;17.90;70.40
22544;DHT22;11438;52.044;8.716;2023-04-09T15:45:41;17.90;70.30
22544;DHT22;11438;52.044;8.716;2023-04-09T15:48:08;17.90;70.90
22544;DHT22;11438;52.044;8.716;2023-04-09T15:50:33;17.90;70.90
22544;DHT22;11438;52.044;8.716;2023-04-09T15:52:59;17.90;70.00
22544;DHT22;11438;52.044;8.716;2023-04-09T15:55:25;17.90;70.30